sensor_id;sensor_type;location;lat;lon;timestamp;pressure;altitude;pressure_sealevel;temperature;humidity
56632;BME280;42503;39.928;-75.152;2023-07-13T00:01:17;101180.53;;;27.34;45.55
56632;BME280;42503;39.928;-75.152;2023-07-13T00:11:19;101180.94;;;27.42;45.61
56632;BME280;42503;39.928;-75.152;2023-07-13T00:21:20;101176.59;;;27.35;45.45
56632;BME280;42503;39.928;-75.152;2023-07-13T00:31:30;101188.63;;;27.50;45.46
56632;BME280;42503;39.928;-75.152;2023-07-13T00:41:34;101191.09;;;27.51;45.61
56632;BME280;42503;39.928;-75.152;2023-07-13T00:51:43;101157.94;;;27.40;45.86
56632;BME280;42503;39.928;-75.152;2023-07-13T01:01:46;101184.00;;;27.54;45.24
56632;BME280;42503;39.928;-75.152;2023-07-13T01:11:48;101190.63;;;27.58;45.40
56632;BME280;42503;39.928;-75.152;2023-07-13T01:21:52;101194.59;;;27.57;45.26
56632;BME280;42503;39.928;-75.152;2023-07-13T01:31:54;101191.78;;;27.57;44.84
56632;BME280;42503;39.928;-75.152;2023-07-13T01:41:55;101172.00;;;27.40;44.35
56632;BME280;42503;39.928;-75.152;2023-07-13T01:51:56;101195.88;;;27.51;43.58
56632;BME280;42503;39.928;-75.152;2023-07-13T02:01:58;101196.09;;;27.54;43.55
56632;BME280;42503;39.928;-75.152;2023-07-13T02:11:59;101175.31;;;27.42;43.10
56632;BME280;42503;39.928;-75.152;2023-07-13T02:22:01;101191.09;;;27.51;42.80
56632;BME280;42503;39.928;-75.152;2023-07-13T02:32:02;101192.50;;;27.40;42.84
56632;BME280;42503;39.928;-75.152;2023-07-13T02:42:07;101203.69;;;27.54;42.69
56632;BME280;42503;39.928;-75.152;2023-07-13T02:52:08;101192.56;;;27.49;42.47
56632;BME280;42503;39.928;-75.152;2023-07-13T03:02:09;101203.03;;;27.57;42.65
56632;BME280;42503;39.928;-75.152;2023-07-13T03:12:11;101182.47;;;27.48;42.40
56632;BME280;42503;39.928;-75.152;2023-07-13T03:22:16;101187.94;;;27.53;41.81
56632;BME280;42503;39.928;-75.152;2023-07-13T03:32:18;101181.63;;;27.47;42.30
56632;BME280;42503;39.928;-75.152;2023-07-13T03:42:23;101198.16;;;27.49;42.31
56632;BME280;42503;39.928;-75.152;2023-07-13T03:52:24;101212.13;;;27.54;42.41
56632;BME280;42503;39.928;-75.152;2023-07-13T04:02:26;101205.66;;;27.53;42.36
56632;BME280;42503;39.928;-75.152;2023-07-13T04:12:27;101189.25;;;27.47;42.23
56632;BME280;42503;39.928;-75.152;2023-07-13T04:22:29;101187.47;;;27.51;42.47
56632;BME280;42503;39.928;-75.152;2023-07-13T04:32:30;101195.25;;;27.54;42.09
56632;BME280;42503;39.928;-75.152;2023-07-13T04:42:32;101185.81;;;27.50;41.72
56632;BME280;42503;39.928;-75.152;2023-07-13T04:52:35;101180.34;;;27.53;41.83
56632;BME280;42503;39.928;-75.152;2023-07-13T05:02:37;101161.00;;;27.52;41.84
56632;BME280;42503;39.928;-75.152;2023-07-13T05:12:39;101135.22;;;27.50;41.68
56632;BME280;42503;39.928;-75.152;2023-07-13T05:22:44;101127.91;;;27.49;41.19
56632;BME280;42503;39.928;-75.152;2023-07-13T05:32:49;101117.81;;;27.48;41.68
56632;BME280;42503;39.928;-75.152;2023-07-13T05:42:50;101106.56;;;27.48;41.29
56632;BME280;42503;39.928;-75.152;2023-07-13T05:52:51;101104.94;;;27.47;41.70
56632;BME280;42503;39.928;-75.152;2023-07-13T06:02:53;101116.81;;;27.44;41.26
56632;BME280;42503;39.928;-75.152;2023-07-13T06:12:54;101125.75;;;27.46;41.49
56632;BME280;42503;39.928;-75.152;2023-07-13T06:22:55;101088.47;;;27.31;41.36
56632;BME280;42503;39.928;-75.152;2023-07-13T06:32:57;101096.00;;;27.45;41.49
56632;BME280;42503;39.928;-75.152;2023-07-13T06:43:01;101086.34;;;27.37;41.21
56632;BME280;42503;39.928;-75.152;2023-07-13T06:53:03;101067.59;;;27.24;41.34
56632;BME280;42503;39.928;-75.152;2023-07-13T07:03:04;101096.63;;;27.42;41.05
56632;BME280;42503;39.928;-75.152;2023-07-13T07:13:05;101087.03;;;27.43;41.13
56632;BME280;42503;39.928;-75.152;2023-07-13T07:23:07;101100.22;;;27.33;41.03
56632;BME280;42503;39.928;-75.152;2023-07-13T07:33:08;101098.03;;;27.30;40.91
56632;BME280;42503;39.928;-75.152;2023-07-13T07:43:11;101096.25;;;27.34;40.93
56632;BME280;42503;39.928;-75.152;2023-07-13T07:53:13;101086.34;;;27.37;41.26
56632;BME280;42503;39.928;-75.152;2023-07-13T08:03:14;101079.09;;;27.36;41.18
56632;BME280;42503;39.928;-75.152;2023-07-13T08:13:16;101091.28;;;27.31;40.99
56632;BME280;42503;39.928;-75.152;2023-07-13T08:23:17;101108.16;;;27.31;40.71
56632;BME280;42503;39.928;-75.152;2023-07-13T08:33:20;101115.41;;;27.32;41.01
56632;BME280;42503;39.928;-75.152;2023-07-13T08:43:49;101127.09;;;27.26;40.96
56632;BME280;42503;39.928;-75.152;2023-07-13T08:53:55;101132.91;;;27.29;41.04
56632;BME280;42503;39.928;-75.152;2023-07-13T09:04:08;101136.25;;;27.31;40.86
56632;BME280;42503;39.928;-75.152;2023-07-13T09:14:35;101139.00;;;27.23;40.57
56632;BME280;42503;39.928;-75.152;2023-07-13T09:24:45;101132.72;;;27.26;40.31
56632;BME280;42503;39.928;-75.152;2023-07-13T09:34:53;101130.69;;;27.18;40.57
56632;BME280;42503;39.928;-75.152;2023-07-13T09:45:00;101112.09;;;27.08;40.48
56632;BME280;42503;39.928;-75.152;2023-07-13T10:05:24;101057.16;;;26.79;40.33
56632;BME280;42503;39.928;-75.152;2023-07-13T10:15:27;101120.47;;;27.22;40.28
56632;BME280;42503;39.928;-75.152;2023-07-13T10:25:34;101126.41;;;27.20;40.49
56632;BME280;42503;39.928;-75.152;2023-07-13T10:35:38;101116.59;;;27.09;40.24
56632;BME280;42503;39.928;-75.152;2023-07-13T10:45:47;101118.09;;;27.15;40.11
56632;BME280;42503;39.928;-75.152;2023-07-13T11:06:14;101117.59;;;27.13;39.88
56632;BME280;42503;39.928;-75.152;2023-07-13T11:36:43;101118.94;;;27.16;39.73
56632;BME280;42503;39.928;-75.152;2023-07-13T11:46:48;101103.59;;;26.99;40.16
56632;BME280;42503;39.928;-75.152;2023-07-13T11:56:49;101117.41;;;27.09;39.82
56632;BME280;42503;39.928;-75.152;2023-07-13T12:07:04;101118.44;;;27.14;40.18
56632;BME280;42503;39.928;-75.152;2023-07-13T12:17:35;101119.88;;;27.11;40.44
56632;BME280;42503;39.928;-75.152;2023-07-13T12:27:39;101109.56;;;27.06;40.41
56632;BME280;42503;39.928;-75.152;2023-07-13T12:37:48;101121.44;;;27.17;40.98
56632;BME280;42503;39.928;-75.152;2023-07-13T12:48:06;101102.41;;;27.14;40.83
56632;BME280;42503;39.928;-75.152;2023-07-13T12:58:19;101086.50;;;27.09;40.80
56632;BME280;42503;39.928;-75.152;2023-07-13T13:08:22;101090.97;;;27.10;40.73
56632;BME280;42503;39.928;-75.152;2023-07-13T13:18:24;101076.78;;;27.16;40.94
56632;BME280;42503;39.928;-75.152;2023-07-13T13:28:25;101059.75;;;27.12;40.82
56632;BME280;42503;39.928;-75.152;2023-07-13T13:38:27;101036.78;;;27.10;40.83
56632;BME280;42503;39.928;-75.152;2023-07-13T13:48:34;101026.44;;;27.19;41.17
56632;BME280;42503;39.928;-75.152;2023-07-13T13:58:36;101035.53;;;27.25;41.23
56632;BME280;42503;39.928;-75.152;2023-07-13T14:08:38;101014.81;;;27.12;41.21
56632;BME280;42503;39.928;-75.152;2023-07-13T14:18:40;101015.38;;;27.23;41.25
56632;BME280;42503;39.928;-75.152;2023-07-13T14:28:43;100925.22;;;26.79;42.06
56632;BME280;42503;39.928;-75.152;2023-07-13T14:38:45;100987.78;;;27.25;42.07
56632;BME280;42503;39.928;-75.152;2023-07-13T14:48:49;100978.91;;;27.31;42.34
56632;BME280;42503;39.928;-75.152;2023-07-13T14:58:53;100960.19;;;27.27;42.22
56632;BME280;42503;39.928;-75.152;2023-07-13T15:08:54;100944.31;;;27.22;42.47
56632;BME280;42503;39.928;-75.152;2023-07-13T15:19:00;100957.06;;;27.28;42.69
56632;BME280;42503;39.928;-75.152;2023-07-13T15:29:03;100953.75;;;27.26;42.57
56632;BME280;42503;39.928;-75.152;2023-07-13T16:06:28;100939.28;;;26.34;46.88
56632;BME280;42503;39.928;-75.152;2023-07-13T16:16:34;100927.50;;;27.00;45.29
56632;BME280;42503;39.928;-75.152;2023-07-13T16:26:37;100928.13;;;27.28;45.37
56632;BME280;42503;39.928;-75.152;2023-07-13T16:36:42;100915.63;;;27.43;45.41
56632;BME280;42503;39.928;-75.152;2023-07-13T16:46:48;100894.00;;;27.52;45.18
56632;BME280;42503;39.928;-75.152;2023-07-13T16:56:53;100873.50;;;27.60;45.88
56632;BME280;42503;39.928;-75.152;2023-07-13T17:06:56;100870.88;;;27.64;46.16
56632;BME280;42503;39.928;-75.152;2023-07-13T17:16:58;100862.25;;;27.60;45.62
56632;BME280;42503;39.928;-75.152;2023-07-13T17:26:59;100854.66;;;27.60;45.74
56632;BME280;42503;39.928;-75.152;2023-07-13T17:37:01;100848.69;;;27.62;45.68
56632;BME280;42503;39.928;-75.152;2023-07-13T17:47:03;100839.94;;;27.64;45.94
56632;BME280;42503;39.928;-75.152;2023-07-13T17:57:09;100821.59;;;27.66;45.42
56632;BME280;42503;39.928;-75.152;2023-07-13T18:07:13;100818.31;;;27.73;45.25
56632;BME280;42503;39.928;-75.152;2023-07-13T18:17:19;100814.84;;;27.76;45.08
56632;BME280;42503;39.928;-75.152;2023-07-13T18:27:20;100783.72;;;27.64;45.38
56632;BME280;42503;39.928;-75.152;2023-07-13T18:37:22;100783.88;;;27.67;46.46
56632;BME280;42503;39.928;-75.152;2023-07-13T18:47:24;100783.09;;;27.75;45.79
56632;BME280;42503;39.928;-75.152;2023-07-13T18:57:36;100795.13;;;28.02;47.09
56632;BME280;42503;39.928;-75.152;2023-07-13T19:07:37;100788.19;;;27.99;47.49
56632;BME280;42503;39.928;-75.152;2023-07-13T19:17:38;100778.91;;;27.99;47.95
56632;BME280;42503;39.928;-75.152;2023-07-13T19:27:40;100779.25;;;28.06;48.22
56632;BME280;42503;39.928;-75.152;2023-07-13T19:37:42;100772.31;;;27.95;47.40
56632;BME280;42503;39.928;-75.152;2023-07-13T19:47:44;100785.38;;;27.99;46.50
56632;BME280;42503;39.928;-75.152;2023-07-13T19:57:45;100765.56;;;27.87;46.11
56632;BME280;42503;39.928;-75.152;2023-07-13T20:07:54;100779.75;;;27.99;45.68
56632;BME280;42503;39.928;-75.152;2023-07-13T20:17:58;100795.78;;;27.99;45.49
56632;BME280;42503;39.928;-75.152;2023-07-13T20:28:00;100782.06;;;27.97;44.88
56632;BME280;42503;39.928;-75.152;2023-07-13T20:38:11;100769.84;;;27.93;44.71
56632;BME280;42503;39.928;-75.152;2023-07-13T20:58:20;100696.75;;;27.58;44.54
56632;BME280;42503;39.928;-75.152;2023-07-13T21:08:24;100753.13;;;27.97;43.94
56632;BME280;42503;39.928;-75.152;2023-07-13T21:18:25;100709.16;;;27.83;43.76
56632;BME280;42503;39.928;-75.152;2023-07-13T21:28:28;100739.88;;;27.97;43.52
56632;BME280;42503;39.928;-75.152;2023-07-13T21:38:35;100733.28;;;27.84;43.64
56632;BME280;42503;39.928;-75.152;2023-07-13T21:48:41;100753.13;;;27.97;43.14
56632;BME280;42503;39.928;-75.152;2023-07-13T21:58:42;100744.19;;;27.95;43.30
56632;BME280;42503;39.928;-75.152;2023-07-13T22:08:43;100736.44;;;27.92;43.18
56632;BME280;42503;39.928;-75.152;2023-07-13T22:18:46;100720.84;;;27.94;43.33
56632;BME280;42503;39.928;-75.152;2023-07-13T22:28:53;100737.41;;;27.96;43.39
56632;BME280;42503;39.928;-75.152;2023-07-13T22:38:57;100726.16;;;27.96;43.41
56632;BME280;42503;39.928;-75.152;2023-07-13T22:49:01;100735.72;;;28.03;43.19
56632;BME280;42503;39.928;-75.152;2023-07-13T22:59:05;100735.44;;;27.96;43.33
56632;BME280;42503;39.928;-75.152;2023-07-13T23:09:13;100731.78;;;28.04;43.08
56632;BME280;42503;39.928;-75.152;2023-07-13T23:19:47;100734.59;;;27.96;43.44
56632;BME280;42503;39.928;-75.152;2023-07-13T23:29:48;100728.81;;;28.01;43.38
56632;BME280;42503;39.928;-75.152;2023-07-13T23:39:55;100739.25;;;27.92;42.68
56632;BME280;42503;39.928;-75.152;2023-07-13T23:49:56;100735.78;;;27.86;43.08
56632;BME280;42503;39.928;-75.152;2023-07-13T23:59:58;100761.06;;;27.95;42.60
